createdAt,value
2018-07-09T00:00:13.604Z,18.50
2018-07-09T00:04:07.479Z,18.50
2018-07-09T00:08:01.663Z,18.40
2018-07-09T00:11:56.339Z,18.40
2018-07-09T00:15:50.430Z,18.40
2018-07-09T00:19:44.574Z,18.30
2018-07-09T00:23:39.702Z,18.30
2018-07-09T00:27:33.763Z,18.30
2018-07-09T00:31:27.732Z,18.20
2018-07-09T00:35:21.683Z,18.10
2018-07-09T00:39:15.735Z,18.00
2018-07-09T00:43:09.809Z,18.00
2018-07-09T00:47:03.831Z,17.90
2018-07-09T00:50:58.194Z,17.90
2018-07-09T00:54:52.842Z,17.90
2018-07-09T00:58:46.410Z,17.80
2018-07-09T01:02:40.690Z,17.80
2018-07-09T01:10:28.209Z,17.70
2018-07-09T01:14:22.515Z,17.60
2018-07-09T01:18:18.218Z,17.60
2018-07-09T01:22:12.411Z,17.50
2018-07-09T01:26:06.698Z,17.60
2018-07-09T01:30:09.323Z,17.40
2018-07-09T01:34:03.402Z,17.40
2018-07-09T01:37:57.706Z,17.40
2018-07-09T01:41:52.095Z,17.30
2018-07-09T01:45:46.146Z,17.20
2018-07-09T01:49:40.681Z,17.20
2018-07-09T01:53:34.826Z,17.10
2018-07-09T01:57:28.868Z,17.00
2018-07-09T02:01:22.857Z,17.00
2018-07-09T02:05:16.740Z,17.00
2018-07-09T02:09:17.748Z,16.90
2018-07-09T02:13:11.750Z,16.80
2018-07-09T02:17:06.221Z,16.70
2018-07-09T02:20:59.598Z,16.60
2018-07-09T02:24:53.859Z,16.50
2018-07-09T02:28:47.907Z,16.60
2018-07-09T02:32:42.099Z,16.60
2018-07-09T02:36:36.159Z,16.50
2018-07-09T02:40:30.139Z,16.40
2018-07-09T02:44:24.819Z,16.40
2018-07-09T02:48:19.741Z,16.40
2018-07-09T02:52:14.035Z,16.30
2018-07-09T02:56:08.303Z,16.30
2018-07-09T03:00:01.919Z,16.20
2018-07-09T03:03:56.190Z,16.10
2018-07-09T03:07:50.731Z,16.10
2018-07-09T03:11:45.480Z,16.00
2018-07-09T03:15:39.392Z,16.00
2018-07-09T03:19:33.692Z,15.90
2018-07-09T03:23:28.011Z,15.80
2018-07-09T03:27:22.583Z,15.80
2018-07-09T03:31:16.997Z,15.80
2018-07-09T03:35:11.442Z,15.80
2018-07-09T03:39:06.031Z,15.80
2018-07-09T03:43:00.356Z,15.80
2018-07-09T03:46:54.734Z,15.80
2018-07-09T03:50:49.085Z,15.80
2018-07-09T03:54:44.048Z,15.80
2018-07-09T03:58:38.373Z,15.80
2018-07-09T04:02:32.132Z,15.80
2018-07-09T04:06:30.119Z,15.80
2018-07-09T04:10:24.379Z,15.80
2018-07-09T04:14:19.809Z,15.80
2018-07-09T04:18:13.957Z,15.80
2018-07-09T04:22:08.317Z,15.80
2018-07-09T04:26:02.387Z,15.90
2018-07-09T04:29:56.742Z,16.00
2018-07-09T04:33:50.835Z,15.90
2018-07-09T04:37:45.066Z,15.90
2018-07-09T04:41:39.413Z,16.00
2018-07-09T04:45:33.338Z,16.10
2018-07-09T04:49:27.615Z,17.80
2018-07-09T04:53:21.726Z,20.50
2018-07-09T04:57:15.360Z,22.70
2018-07-09T05:01:09.858Z,24.00
2018-07-09T05:05:09.279Z,24.80
2018-07-09T05:09:05.127Z,24.80
2018-07-09T05:13:01.963Z,25.10
2018-07-09T05:17:17.277Z,24.60
2018-07-09T05:21:13.789Z,22.80
2018-07-09T05:25:12.718Z,21.20
2018-07-09T05:29:07.422Z,19.90
2018-07-09T05:36:57.642Z,18.80
2018-07-09T05:40:52.534Z,18.70
2018-07-09T05:44:53.457Z,18.70
2018-07-09T05:48:49.286Z,18.60
2018-07-09T05:52:43.589Z,18.60
2018-07-09T06:00:32.222Z,18.80
2018-07-09T06:08:37.812Z,18.80
2018-07-09T06:12:33.443Z,18.80
2018-07-09T06:16:28.583Z,18.80
2018-07-09T06:20:29.026Z,18.80
2018-07-09T06:24:28.723Z,18.70
2018-07-09T06:28:23.951Z,18.50
2018-07-09T06:32:19.990Z,18.60
2018-07-09T06:36:17.152Z,18.60
2018-07-09T06:40:11.979Z,18.60
2018-07-09T06:44:07.655Z,18.60
2018-07-09T06:48:02.491Z,18.50
2018-07-09T06:51:56.350Z,18.50
2018-07-09T06:55:50.557Z,18.60
2018-07-09T06:59:44.882Z,18.90
2018-07-09T07:03:42.883Z,19.30
2018-07-09T07:07:38.419Z,19.90
2018-07-09T07:11:32.886Z,20.50
2018-07-09T07:15:28.096Z,21.00
2018-07-09T07:19:24.592Z,21.40
2018-07-09T07:23:19.018Z,21.50
2018-07-09T07:27:13.227Z,21.40
2018-07-09T07:31:08.366Z,21.70
2018-07-09T07:35:03.089Z,21.60
2018-07-09T07:38:58.430Z,21.30
2018-07-09T07:42:54.299Z,21.10
2018-07-09T07:46:48.646Z,20.80
2018-07-09T07:50:43.684Z,21.00
2018-07-09T07:54:37.667Z,21.40
2018-07-09T07:58:32.276Z,22.10
2018-07-09T08:02:27.194Z,22.10
2018-07-09T08:06:21.347Z,22.30
2018-07-09T08:10:16.896Z,21.80
2018-07-09T08:14:12.415Z,21.50
2018-07-09T08:18:08.151Z,21.10
2018-07-09T08:22:04.721Z,20.90
2018-07-09T08:25:59.030Z,20.60
2018-07-09T08:29:53.555Z,20.60
2018-07-09T08:33:49.236Z,21.10
2018-07-09T08:37:43.314Z,21.60
2018-07-09T08:41:38.437Z,22.30
2018-07-09T08:45:32.101Z,22.60
2018-07-09T08:49:26.387Z,23.00
2018-07-09T08:53:22.951Z,23.60
2018-07-09T08:57:17.979Z,23.50
2018-07-09T09:05:09.886Z,24.10
2018-07-09T09:09:05.144Z,24.10
2018-07-09T09:13:00.815Z,24.20
2018-07-09T09:16:55.253Z,24.30
2018-07-09T09:20:51.488Z,23.90
2018-07-09T09:24:45.742Z,23.60
2018-07-09T09:28:40.557Z,23.10
2018-07-09T09:32:34.933Z,22.80
2018-07-09T09:36:29.934Z,22.70
2018-07-09T09:40:25.928Z,22.60
2018-07-09T09:44:20.346Z,22.60
2018-07-09T09:48:19.084Z,22.60
2018-07-09T09:56:06.839Z,22.40
2018-07-09T10:00:02.471Z,22.50
2018-07-09T10:03:57.486Z,22.90
2018-07-09T10:07:56.887Z,23.10
2018-07-09T10:11:53.387Z,23.00
2018-07-09T10:15:47.474Z,22.90
2018-07-09T10:19:43.123Z,23.00
2018-07-09T10:23:38.136Z,23.10
2018-07-09T10:27:32.443Z,23.30
2018-07-09T10:31:27.716Z,24.30
2018-07-09T10:35:25.954Z,24.90
2018-07-09T10:39:20.559Z,25.10
2018-07-09T10:43:15.781Z,25.00
2018-07-09T10:47:11.545Z,24.90
2018-07-09T10:51:07.746Z,24.80
2018-07-09T10:55:02.311Z,25.00
2018-07-09T10:59:01.284Z,25.20
2018-07-09T11:02:55.312Z,24.60
2018-07-09T11:06:50.865Z,24.20
2018-07-09T11:10:45.349Z,24.10
2018-07-09T11:14:41.551Z,23.90
2018-07-09T11:18:37.457Z,23.90
2018-07-09T11:22:32.508Z,24.40
2018-07-09T11:26:27.056Z,24.90
2018-07-09T11:30:21.593Z,24.90
2018-07-09T11:34:16.156Z,25.50
2018-07-09T11:38:10.572Z,25.40
2018-07-09T11:42:06.254Z,25.40
2018-07-09T11:46:01.495Z,25.10
2018-07-09T11:49:59.675Z,24.90
2018-07-09T11:53:54.189Z,25.10
2018-07-09T11:57:49.469Z,25.40
2018-07-09T12:01:45.160Z,25.40
2018-07-09T12:05:39.737Z,25.30
2018-07-09T12:09:35.002Z,25.50
2018-07-09T12:13:29.485Z,25.60
2018-07-09T12:17:23.814Z,25.60
2018-07-09T12:21:18.655Z,26.10
2018-07-09T12:25:22.912Z,26.20
2018-07-09T12:29:19.212Z,25.60
2018-07-09T12:33:14.941Z,25.80
2018-07-09T12:41:04.112Z,25.70
2018-07-09T12:44:58.369Z,26.10
2018-07-09T12:48:53.009Z,26.30
2018-07-09T12:52:47.214Z,26.30
2018-07-09T12:56:45.791Z,26.70
2018-07-09T13:00:50.187Z,26.50
2018-07-09T13:09:01.738Z,26.40
2018-07-09T13:12:55.267Z,25.90
2018-07-09T13:16:49.483Z,25.80
2018-07-09T13:20:44.735Z,25.90
2018-07-09T13:24:40.788Z,26.50
2018-07-09T13:28:36.694Z,26.50
2018-07-09T13:32:36.107Z,26.20
2018-07-09T13:36:31.074Z,26.00
2018-07-09T13:40:27.219Z,25.80
2018-07-09T13:44:23.302Z,25.70
2018-07-09T13:48:16.853Z,25.50
2018-07-09T13:52:11.909Z,25.10
2018-07-09T13:56:06.559Z,25.20
2018-07-09T14:00:01.224Z,25.30
2018-07-09T14:03:55.477Z,25.40
2018-07-09T14:07:49.595Z,25.50
2018-07-09T14:11:44.186Z,25.50
2018-07-09T14:15:39.569Z,25.50
2018-07-09T14:20:43.213Z,25.50
2018-07-09T14:24:37.751Z,25.40
2018-07-09T14:28:32.386Z,25.30
2018-07-09T14:32:27.047Z,25.00
2018-07-09T14:36:21.859Z,24.60
2018-07-09T14:40:16.078Z,24.30
2018-07-09T14:44:10.187Z,24.20
2018-07-09T14:48:04.356Z,24.10
2018-07-09T14:51:59.468Z,24.20
2018-07-09T14:55:53.677Z,24.20
2018-07-09T14:59:47.310Z,24.10
2018-07-09T15:03:41.854Z,23.90
2018-07-09T15:07:35.838Z,23.70
2018-07-09T15:11:30.552Z,23.50
2018-07-09T15:15:25.665Z,23.30
2018-07-09T15:19:19.914Z,23.30
2018-07-09T15:23:13.886Z,23.50
2018-07-09T15:27:08.082Z,23.60
2018-07-09T15:31:02.316Z,23.80
2018-07-09T15:35:15.337Z,24.10
2018-07-09T15:39:22.061Z,24.20
2018-07-09T15:43:17.544Z,24.30
2018-07-09T15:47:11.937Z,24.40
2018-07-09T15:51:07.576Z,24.40
2018-07-09T15:55:02.738Z,24.20
2018-07-09T15:58:58.150Z,24.00
2018-07-09T16:02:52.552Z,23.80
2018-07-09T16:06:47.922Z,23.80
2018-07-09T16:10:42.952Z,24.10
2018-07-09T16:14:37.253Z,24.10
2018-07-09T16:18:31.346Z,24.10
2018-07-09T16:22:25.738Z,24.30
2018-07-09T16:26:20.913Z,24.30
2018-07-09T16:30:17.087Z,24.30
2018-07-09T16:34:12.238Z,24.40
2018-07-09T16:38:06.655Z,24.60
2018-07-09T16:42:03.010Z,24.50
2018-07-09T16:45:56.769Z,24.30
2018-07-09T16:49:51.567Z,24.10
2018-07-09T16:53:46.373Z,24.10
2018-07-09T16:57:40.840Z,24.00
2018-07-09T17:02:17.244Z,23.80
2018-07-09T17:06:15.963Z,23.50
2018-07-09T17:10:10.478Z,23.30
2018-07-09T17:14:06.067Z,23.20
2018-07-09T17:18:00.238Z,23.20
2018-07-09T17:21:55.287Z,23.10
2018-07-09T17:25:49.828Z,22.80
2018-07-09T17:29:43.788Z,22.70
2018-07-09T17:33:37.938Z,22.70
2018-07-09T17:37:32.142Z,22.60
2018-07-09T17:41:26.615Z,22.60
2018-07-09T17:45:20.701Z,22.60
2018-07-09T17:49:14.997Z,22.60
2018-07-09T17:53:09.382Z,22.60
2018-07-09T17:57:03.553Z,22.60
2018-07-09T18:00:57.694Z,22.70
2018-07-09T18:04:51.810Z,22.80
2018-07-09T18:08:46.001Z,22.80
2018-07-09T18:12:40.188Z,23.00
2018-07-09T18:16:34.594Z,23.00
2018-07-09T18:20:29.025Z,22.90
2018-07-09T18:24:23.228Z,23.00
2018-07-09T18:28:17.518Z,23.00
2018-07-09T18:32:11.798Z,22.70
2018-07-09T18:36:06.425Z,22.40
2018-07-09T18:40:00.371Z,22.10
2018-07-09T18:43:54.722Z,21.80
2018-07-09T18:47:49.190Z,21.60
2018-07-09T18:51:44.181Z,21.40
2018-07-09T18:55:38.942Z,21.20
2018-07-09T18:59:33.286Z,21.20
2018-07-09T19:03:27.691Z,21.10
2018-07-09T19:07:22.723Z,21.10
2018-07-09T19:11:16.789Z,21.10
2018-07-09T19:15:10.430Z,21.00
2018-07-09T19:19:15.694Z,20.90
2018-07-09T19:23:10.222Z,20.70
2018-07-09T19:27:03.959Z,20.70
2018-07-09T19:30:58.112Z,20.70
2018-07-09T19:34:51.052Z,20.50
2018-07-09T19:38:45.423Z,20.30
2018-07-09T19:42:40.170Z,20.20
2018-07-09T19:46:33.154Z,20.10
2018-07-09T19:50:27.773Z,20.00
2018-07-09T19:54:22.078Z,19.90
2018-07-09T19:58:17.298Z,19.90
2018-07-09T20:02:11.670Z,19.80
2018-07-09T20:06:04.773Z,19.70
2018-07-09T20:10:02.879Z,19.70
2018-07-09T20:14:02.985Z,19.50
2018-07-09T20:21:50.579Z,19.20
2018-07-09T20:25:44.662Z,19.10
2018-07-09T20:29:37.591Z,19.00
2018-07-09T20:33:30.750Z,18.90
2018-07-09T20:37:24.672Z,18.80
2018-07-09T20:41:18.041Z,18.80
2018-07-09T20:45:11.162Z,18.90
2018-07-09T20:49:04.330Z,18.90
2018-07-09T20:52:57.699Z,18.90
2018-07-09T21:00:48.621Z,18.70
2018-07-09T21:04:41.977Z,18.70
2018-07-09T21:08:34.987Z,18.60
2018-07-09T21:12:28.053Z,18.50
2018-07-09T21:16:23.666Z,18.40
2018-07-09T21:20:17.279Z,18.40
2018-07-09T21:24:10.298Z,18.30
2018-07-09T21:28:03.728Z,18.40
2018-07-09T21:31:57.098Z,18.40
2018-07-09T21:35:49.994Z,18.30
2018-07-09T21:39:43.199Z,18.30
2018-07-09T21:43:36.257Z,18.30
2018-07-09T21:47:29.153Z,18.20
2018-07-09T21:51:22.817Z,18.10
2018-07-09T21:55:16.071Z,18.20
2018-07-09T21:59:09.402Z,18.10
2018-07-09T22:03:02.593Z,18.10
2018-07-09T22:06:55.529Z,18.10
2018-07-09T22:10:49.287Z,18.10
2018-07-09T22:14:42.450Z,18.00
2018-07-09T22:18:35.387Z,18.00
2018-07-09T22:22:35.269Z,18.10
2018-07-09T22:26:28.291Z,18.20
2018-07-09T22:30:28.198Z,18.10
2018-07-09T22:34:23.211Z,17.80
2018-07-09T22:38:17.703Z,17.50
2018-07-09T22:42:12.353Z,17.30
2018-07-09T22:46:07.111Z,17.20
2018-07-09T22:50:02.192Z,17.10
2018-07-09T22:53:55.751Z,17.10
2018-07-09T22:57:50.597Z,17.10
2018-07-09T23:01:45.174Z,17.10
2018-07-09T23:05:44.059Z,17.10
2018-07-09T23:09:58.296Z,17.10
2018-07-09T23:15:03.036Z,17.10
2018-07-09T23:19:08.799Z,17.00
2018-07-09T23:23:01.997Z,16.90
2018-07-09T23:26:55.415Z,16.90
2018-07-09T23:30:48.454Z,16.90
2018-07-09T23:34:42.558Z,16.90
2018-07-09T23:38:35.989Z,16.90
2018-07-09T23:42:28.887Z,16.90
2018-07-09T23:46:22.141Z,16.80
2018-07-09T23:50:15.699Z,16.80
2018-07-09T23:54:07.886Z,16.80
2018-07-09T23:58:13.657Z,16.70
